KHKS

Hawkins Field Airport

Jackson, Mississippi, USA
METAR KHKS 180253Z AUTO 00000KT 1/4SM FG VV002 13/13 A3013 RMK AO2 SLP198 T01330133 51004
Observed Flight Rules
Dec-18 @ 02:53 UTC (17 minutes ago) Instrument Flight Rules
Wind Visibility Clouds Conditions
Calm 1/4 miles
  • Vertical visibility at 200' AGL
  • Fog
Temperatures Readings
Current 13°C / 55°F
Dewpoint 13°C / 55°F
Humidity 100%
Altimeter 30.13" Hg
Pressure 1019.8 hPa
Elevation 108
METAR KHKS 180253Z AUTO 00000KT 1/4SM FG VV002 13/13 A3013 RMK AO2 SLP198 T01330133 51004
Observed Flight Rules
Dec-18 @ 02:53 UTC
(17 minutes ago)
LIFR
Wind Visibility
Calm 1/4 miles
Clouds
  • Vertical visibility at 200' AGL
Conditions
  • Fog
Temperature Dewpoint
13°C / 55°F 13°C / 55°F
Humidity Altimeter Pressure
100% 30.13" Hg 1019.8 hPa